Time;durP1;ratioP1;P1;durP2;ratioP2;P2;SDS_P1;SDS_P2;PMS_P1;PMS_P2;Temp;Humidity;BMP_temperature;BMP_pressure;BME280_temperature;BME280_humidity;BME280_pressure;Samples;Min_cycle;Max_cycle;Signal;HPM_P1;HPM_P2
2023/05/06 00:01:46;;;;;;;45.30;26.25;;;;;;;;;;5101140;27;20036;-82
2023/05/06 00:04:14;;;;;;;49.92;27.83;;;;;;;;;;5113222;28;20058;-82
2023/05/06 00:06:40;;;;;;;39.05;25.92;;;;;;;;;;5109842;28;20039;-82
2023/05/06 00:09:06;;;;;;;43.78;25.23;;;;;;;;;;5117719;27;20047;-82
2023/05/06 00:11:32;;;;;;;39.97;25.38;;;;;;;;;;5116943;28;20043;-81
2023/05/06 00:13:59;;;;;;;40.70;24.20;;;;;;;;;;5113026;27;20047;-82
2023/05/06 00:16:25;;;;;;;38.85;24.13;;;;;;;;;;5102283;27;20035;-82
2023/05/06 00:18:51;;;;;;;50.25;26.27;;;;;;;;;;5091328;27;20160;-82
2023/05/06 00:21:17;;;;;;;44.95;25.80;;;;;;;;;;5094129;27;20182;-81
2023/05/06 00:23:43;;;;;;;85.10;32.30;;;;;;;;;;5087448;27;20051;-83
2023/05/06 00:26:10;;;;;;;53.97;32.30;;;;;;;;;;5081514;27;20992;-82
2023/05/06 00:28:36;;;;;;;60.85;37.40;;;;;;;;;;5091603;27;20073;-82
2023/05/06 00:31:02;;;;;;;64.45;37.92;;;;;;;;;;5089157;27;20047;-81
2023/05/06 00:33:28;;;;;;;74.53;37.22;;;;;;;;;;5090126;27;20515;-82
2023/05/06 00:35:54;;;;;;;62.03;33.88;;;;;;;;;;5090706;27;20047;-81
2023/05/06 00:38:20;;;;;;;72.28;34.92;;;;;;;;;;5090238;27;20060;-81
2023/05/06 00:40:46;;;;;;;66.40;33.47;;;;;;;;;;5091072;27;20028;-81
2023/05/06 00:43:12;;;;;;;55.40;31.20;;;;;;;;;;5089127;27;20031;-81
2023/05/06 00:45:38;;;;;;;60.38;32.42;;;;;;;;;;5081608;27;20051;-81
2023/05/06 00:48:06;;;;;;;57.08;33.20;;;;;;;;;;5090615;27;20048;-81
2023/05/06 00:50:33;;;;;;;57.95;33.90;;;;;;;;;;5088465;27;20924;-81
2023/05/06 00:52:59;;;;;;;59.33;33.53;;;;;;;;;;5100059;28;20071;-81
2023/05/06 00:55:26;;;;;;;75.80;35.88;;;;;;;;;;5102079;28;20270;-81
2023/05/06 00:57:52;;;;;;;73.78;35.70;;;;;;;;;;5102737;28;20058;-81
2023/05/06 01:00:19;;;;;;;89.43;38.20;;;;;;;;;;5109382;27;20041;-81
2023/05/06 01:02:46;;;;;;;65.05;33.55;;;;;;;;;;5099364;27;20566;-80
2023/05/06 01:05:12;;;;;;;60.65;32.33;;;;;;;;;;5104700;27;20047;-81
2023/05/06 01:07:44;;;;;;;54.53;32.85;;;;;;;;;;5091511;27;20052;-81
2023/05/06 01:10:17;;;;;;;76.60;36.95;;;;;;;;;;5108983;27;20050;-81
2023/05/06 01:12:48;;;;;;;75.32;36.00;;;;;;;;;;5105159;27;20071;-81
2023/05/06 01:15:16;;;;;;;59.05;30.98;;;;;;;;;;5103521;27;20349;-81
2023/05/06 01:17:49;;;;;;;63.85;31.85;;;;;;;;;;5096603;27;20051;-81
2023/05/06 01:20:16;;;;;;;66.22;33.60;;;;;;;;;;5097084;27;20047;-81
2023/05/06 01:22:42;;;;;;;72.78;33.72;;;;;;;;;;5094620;27;20074;-80
2023/05/06 01:25:18;;;;;;;77.72;35.55;;;;;;;;;;5094282;27;20056;-81
2023/05/06 01:27:44;;;;;;;66.72;32.35;;;;;;;;;;5078497;27;20047;-80
2023/05/06 01:30:10;;;;;;;59.13;32.75;;;;;;;;;;5092487;27;20726;-81
2023/05/06 01:32:55;;;;;;;56.35;31.55;;;;;;;;;;5094452;27;20043;-81
2023/05/06 01:35:34;;;;;;;61.30;32.15;;;;;;;;;;5093608;27;20530;-81
2023/05/06 01:38:17;;;;;;;78.85;36.17;;;;;;;;;;5094110;27;20139;-81
2023/05/06 01:40:44;;;;;;;80.25;36.30;;;;;;;;;;5097702;27;20036;-81
2023/05/06 01:43:12;;;;;;;76.55;36.40;;;;;;;;;;5094784;27;20182;-81
2023/05/06 01:45:39;;;;;;;78.03;37.45;;;;;;;;;;5094714;27;20046;-81
2023/05/06 01:48:06;;;;;;;145.15;42.33;;;;;;;;;;5096717;27;20109;-82
2023/05/06 01:50:32;;;;;;;132.90;38.60;;;;;;;;;;5094749;27;20417;-81
2023/05/06 01:52:59;;;;;;;115.15;35.20;;;;;;;;;;5095156;27;20107;-81
2023/05/06 01:55:26;;;;;;;243.85;34.78;;;;;;;;;;5096927;27;20043;-81
2023/05/06 01:57:52;;;;;;;428.52;42.10;;;;;;;;;;5097160;27;21119;-81
2023/05/06 02:00:19;;;;;;;431.58;38.97;;;;;;;;;;5094128;27;20552;-82
2023/05/06 02:02:46;;;;;;;291.27;35.90;;;;;;;;;;5090845;27;20043;-81
2023/05/06 02:05:12;;;;;;;363.27;40.38;;;;;;;;;;5086109;27;20392;-82
2023/05/06 02:07:38;;;;;;;466.30;40.22;;;;;;;;;;5066619;27;20050;-82
2023/05/06 02:10:04;;;;;;;223.63;34.97;;;;;;;;;;5083639;27;20059;-81
2023/05/06 02:12:30;;;;;;;78.68;31.92;;;;;;;;;;5085639;27;20131;-82
2023/05/06 02:14:57;;;;;;;96.07;33.60;;;;;;;;;;5086145;27;20043;-82
2023/05/06 02:17:23;;;;;;;76.13;33.20;;;;;;;;;;5073092;27;20048;-82
2023/05/06 02:19:49;;;;;;;68.30;33.40;;;;;;;;;;5066944;27;20070;-82
2023/05/06 02:22:15;;;;;;;88.68;35.63;;;;;;;;;;5088866;27;20790;-82
2023/05/06 02:24:41;;;;;;;83.18;35.63;;;;;;;;;;5088783;27;20261;-82
2023/05/06 02:27:07;;;;;;;94.28;37.00;;;;;;;;;;5067144;27;20066;-82
2023/05/06 02:29:33;;;;;;;93.68;38.83;;;;;;;;;;5088264;27;20429;-82
2023/05/06 02:31:59;;;;;;;84.63;36.00;;;;;;;;;;5092433;27;20040;-82
2023/05/06 02:34:25;;;;;;;89.28;36.35;;;;;;;;;;5090404;27;20047;-82
2023/05/06 02:36:51;;;;;;;116.88;42.13;;;;;;;;;;5091194;27;20055;-82
2023/05/06 02:39:18;;;;;;;143.68;41.53;;;;;;;;;;5089181;27;20077;-82
2023/05/06 02:41:44;;;;;;;53.53;30.50;;;;;;;;;;5090164;27;20044;-81
2023/05/06 02:44:10;;;;;;;63.88;32.35;;;;;;;;;;5070942;27;20050;-82
2023/05/06 02:46:36;;;;;;;69.47;31.60;;;;;;;;;;5091410;27;20053;-82
2023/05/06 02:49:02;;;;;;;85.53;33.08;;;;;;;;;;5088253;27;22916;-82
2023/05/06 02:51:28;;;;;;;56.28;30.02;;;;;;;;;;5086621;27;20092;-82
2023/05/06 02:53:54;;;;;;;60.42;30.10;;;;;;;;;;5084905;27;20040;-82
2023/05/06 02:56:20;;;;;;;90.32;35.60;;;;;;;;;;5084623;27;20046;-82
2023/05/06 02:58:46;;;;;;;85.25;35.50;;;;;;;;;;5085437;27;20756;-82
2023/05/06 03:01:12;;;;;;;85.50;35.50;;;;;;;;;;5087159;27;20111;-82
2023/05/06 03:03:38;;;;;;;99.03;37.90;;;;;;;;;;5086429;27;20050;-81
2023/05/06 03:06:05;;;;;;;65.82;32.28;;;;;;;;;;5081963;27;20040;-82
2023/05/06 03:08:31;;;;;;;57.72;30.95;;;;;;;;;;5061383;27;20141;-82
2023/05/06 03:10:57;;;;;;;68.88;33.72;;;;;;;;;;5086117;27;20063;-81
2023/05/06 03:13:24;;;;;;;71.30;34.40;;;;;;;;;;5082468;27;20403;-82
2023/05/06 03:15:53;;;;;;;58.72;30.67;;;;;;;;;;5087383;27;20510;-81
2023/05/06 03:18:19;;;;;;;44.45;27.70;;;;;;;;;;5083807;27;21974;-81
2023/05/06 03:20:47;;;;;;;59.00;30.30;;;;;;;;;;5087245;27;20040;-81
2023/05/06 03:23:13;;;;;;;60.97;30.98;;;;;;;;;;5083719;27;20063;-81
2023/05/06 03:25:40;;;;;;;58.45;30.40;;;;;;;;;;5071132;27;20058;-82
2023/05/06 03:28:06;;;;;;;42.42;26.83;;;;;;;;;;5085934;27;20052;-82
2023/05/06 03:30:32;;;;;;;74.10;34.30;;;;;;;;;;5083904;27;20143;-81
2023/05/06 03:33:00;;;;;;;66.13;33.88;;;;;;;;;;5088955;27;20104;-82
2023/05/06 03:35:26;;;;;;;62.05;32.75;;;;;;;;;;5084476;27;20046;-82
2023/05/06 03:37:53;;;;;;;52.22;30.63;;;;;;;;;;5061527;27;20055;-81
2023/05/06 03:40:19;;;;;;;73.72;34.42;;;;;;;;;;5085616;27;20067;-81
2023/05/06 03:42:45;;;;;;;69.45;33.95;;;;;;;;;;5085545;27;20044;-81
2023/05/06 03:45:12;;;;;;;67.50;34.30;;;;;;;;;;5089457;27;20046;-82
2023/05/06 03:47:38;;;;;;;71.65;34.53;;;;;;;;;;5076271;27;20158;-81
2023/05/06 03:50:04;;;;;;;84.60;35.53;;;;;;;;;;5110375;27;20099;-80
2023/05/06 03:52:30;;;;;;;81.57;35.10;;;;;;;;;;5098220;27;20499;-81
2023/05/06 03:54:56;;;;;;;67.38;32.05;;;;;;;;;;5095847;27;20149;-81
2023/05/06 03:57:22;;;;;;;67.97;33.03;;;;;;;;;;5095371;27;20476;-81
2023/05/06 03:59:48;;;;;;;61.97;30.38;;;;;;;;;;5083714;27;20046;-81
2023/05/06 04:02:15;;;;;;;49.83;27.65;;;;;;;;;;5072127;28;20040;-82
2023/05/06 04:04:41;;;;;;;67.90;33.40;;;;;;;;;;5081985;27;20146;-81
2023/05/06 04:07:08;;;;;;;81.50;35.45;;;;;;;;;;5085098;27;20043;-81
2023/05/06 04:09:34;;;;;;;79.60;34.47;;;;;;;;;;5082878;27;20058;-82
2023/05/06 04:12:01;;;;;;;166.80;37.58;;;;;;;;;;5083327;27;20043;-81
2023/05/06 04:14:27;;;;;;;294.20;33.13;;;;;;;;;;5082811;28;20937;-85
2023/05/06 04:16:53;;;;;;;357.63;30.67;;;;;;;;;;5092692;27;20119;-85
2023/05/06 04:19:20;;;;;;;224.23;24.67;;;;;;;;;;5100035;27;20143;-84
2023/05/06 04:21:46;;;;;;;134.55;26.83;;;;;;;;;;5100791;27;20039;-84
2023/05/06 04:24:17;;;;;;;214.13;32.63;;;;;;;;;;5072490;28;20062;-84
2023/05/06 04:26:43;;;;;;;76.22;29.42;;;;;;;;;;5093890;27;21267;-84
2023/05/06 04:29:09;;;;;;;110.28;42.65;;;;;;;;;;5075842;28;20109;-84
2023/05/06 04:31:35;;;;;;;132.85;44.78;;;;;;;;;;5090218;27;20048;-84
2023/05/06 04:34:03;;;;;;;160.07;49.75;;;;;;;;;;5098014;27;20047;-84
2023/05/06 04:36:29;;;;;;;123.43;46.40;;;;;;;;;;5096411;27;20043;-84
2023/05/06 04:38:55;;;;;;;229.57;48.92;;;;;;;;;;5082700;27;20050;-84
2023/05/06 04:41:22;;;;;;;351.48;52.92;;;;;;;;;;5099202;27;20124;-84
2023/05/06 04:43:48;;;;;;;417.98;59.58;;;;;;;;;;5101413;27;20117;-84
2023/05/06 04:46:14;;;;;;;280.25;46.67;;;;;;;;;;5094070;27;20039;-84
2023/05/06 04:48:41;;;;;;;396.27;52.40;;;;;;;;;;5102805;27;20066;-84
2023/05/06 04:51:08;;;;;;;461.73;56.28;;;;;;;;;;5100203;27;20134;-84
2023/05/06 04:53:34;;;;;;;400.00;51.05;;;;;;;;;;5104439;27;20050;-84
2023/05/06 04:56:00;;;;;;;344.23;47.08;;;;;;;;;;5100116;27;20051;-85
2023/05/06 04:58:26;;;;;;;347.55;48.88;;;;;;;;;;5102317;27;20060;-84
2023/05/06 05:00:53;;;;;;;515.08;58.42;;;;;;;;;;5101989;27;20047;-85
2023/05/06 05:03:19;;;;;;;424.38;51.60;;;;;;;;;;5087327;27;20043;-85
2023/05/06 05:05:45;;;;;;;416.60;51.88;;;;;;;;;;5069664;27;20047;-84
2023/05/06 05:08:12;;;;;;;388.88;50.50;;;;;;;;;;5097568;27;20047;-84
2023/05/06 05:10:41;;;;;;;365.17;49.50;;;;;;;;;;5096407;27;21418;-83
2023/05/06 05:13:07;;;;;;;304.40;49.60;;;;;;;;;;5096261;27;21858;-83
2023/05/06 05:15:33;;;;;;;388.65;54.30;;;;;;;;;;5096826;27;20035;-84
2023/05/06 05:17:59;;;;;;;348.65;54.55;;;;;;;;;;5099842;27;20040;-85
2023/05/06 05:20:25;;;;;;;487.45;58.17;;;;;;;;;;5100038;27;20049;-84
2023/05/06 05:22:51;;;;;;;429.25;53.35;;;;;;;;;;5096040;27;20490;-84
2023/05/06 05:25:17;;;;;;;316.27;45.08;;;;;;;;;;5097458;27;20060;-84
2023/05/06 05:27:43;;;;;;;215.30;41.80;;;;;;;;;;5097661;27;20055;-84
2023/05/06 05:30:10;;;;;;;190.10;39.67;;;;;;;;;;5103672;27;20050;-85
2023/05/06 05:32:36;;;;;;;239.75;41.97;;;;;;;;;;5096174;27;20050;-84
2023/05/06 05:35:03;;;;;;;246.48;45.72;;;;;;;;;;5101783;27;20399;-83
2023/05/06 05:37:30;;;;;;;231.90;44.63;;;;;;;;;;5099590;27;20117;-84
2023/05/06 05:39:56;;;;;;;183.32;41.45;;;;;;;;;;5110020;27;20054;-84
2023/05/06 05:42:22;;;;;;;163.85;38.58;;;;;;;;;;5097103;27;20045;-84
2023/05/06 05:44:48;;;;;;;213.40;43.25;;;;;;;;;;5104057;27;20050;-84
2023/05/06 05:47:14;;;;;;;227.15;42.03;;;;;;;;;;5089832;27;20120;-85
2023/05/06 05:49:41;;;;;;;214.13;42.38;;;;;;;;;;5106521;27;20050;-85
2023/05/06 05:52:08;;;;;;;217.02;44.97;;;;;;;;;;5116827;27;20035;-85
2023/05/06 05:54:34;;;;;;;232.10;48.30;;;;;;;;;;5106181;27;20047;-84
2023/05/06 05:57:01;;;;;;;165.25;42.33;;;;;;;;;;5105145;27;20088;-85
2023/05/06 05:59:27;;;;;;;190.80;41.70;;;;;;;;;;5083584;27;20039;-84
2023/05/06 06:01:53;;;;;;;173.57;42.60;;;;;;;;;;5096098;27;20047;-84
2023/05/06 06:04:19;;;;;;;168.45;42.75;;;;;;;;;;5095608;27;20032;-83
2023/05/06 06:06:46;;;;;;;160.18;43.75;;;;;;;;;;5077145;27;20149;-84
2023/05/06 06:09:12;;;;;;;163.15;48.72;;;;;;;;;;5089301;27;20052;-83
2023/05/06 06:11:38;;;;;;;111.10;45.40;;;;;;;;;;5091796;27;20044;-83
2023/05/06 06:14:04;;;;;;;92.65;43.05;;;;;;;;;;5089758;27;20425;-84
2023/05/06 06:16:30;;;;;;;78.35;38.08;;;;;;;;;;5086353;27;20040;-82
2023/05/06 06:18:56;;;;;;;82.28;38.90;;;;;;;;;;5085629;27;20475;-83
2023/05/06 06:21:22;;;;;;;71.45;36.83;;;;;;;;;;5089270;27;20675;-82
2023/05/06 06:23:48;;;;;;;64.88;35.78;;;;;;;;;;5072908;27;20063;-82
2023/05/06 06:26:15;;;;;;;66.72;37.38;;;;;;;;;;5092529;27;20158;-82
2023/05/06 06:28:41;;;;;;;64.97;36.55;;;;;;;;;;5091872;27;20484;-83
2023/05/06 06:31:07;;;;;;;59.38;34.60;;;;;;;;;;5093472;27;20548;-83
2023/05/06 06:33:33;;;;;;;58.13;37.00;;;;;;;;;;5093067;27;21059;-83
2023/05/06 06:35:59;;;;;;;62.75;37.63;;;;;;;;;;5086588;27;20043;-83
2023/05/06 06:38:25;;;;;;;65.90;36.47;;;;;;;;;;5091134;27;20040;-84
2023/05/06 06:40:51;;;;;;;66.82;38.28;;;;;;;;;;5090403;27;20153;-82
2023/05/06 06:43:18;;;;;;;63.60;36.60;;;;;;;;;;5090664;27;22200;-84
2023/05/06 06:45:48;;;;;;;58.83;37.22;;;;;;;;;;5096424;27;20115;-84
2023/05/06 06:48:14;;;;;;;47.90;33.10;;;;;;;;;;5085298;27;20126;-84
2023/05/06 06:50:40;;;;;;;50.88;33.35;;;;;;;;;;5102040;27;20523;-85
2023/05/06 06:53:06;;;;;;;49.08;32.83;;;;;;;;;;5097707;27;20039;-84
2023/05/06 06:55:32;;;;;;;39.05;28.35;;;;;;;;;;5091632;27;20044;-84
2023/05/06 06:57:58;;;;;;;37.58;27.95;;;;;;;;;;5086481;27;20479;-85
2023/05/06 07:00:25;;;;;;;37.72;28.23;;;;;;;;;;5115574;27;20063;-86
2023/05/06 07:02:51;;;;;;;44.03;29.65;;;;;;;;;;5108286;27;20047;-86
2023/05/06 07:05:18;;;;;;;51.22;31.90;;;;;;;;;;5110467;27;20056;-86
2023/05/06 07:07:44;;;;;;;58.53;34.50;;;;;;;;;;5097143;28;20050;-85
2023/05/06 07:10:10;;;;;;;48.10;30.70;;;;;;;;;;5111799;27;20046;-86
2023/05/06 07:12:36;;;;;;;48.42;31.90;;;;;;;;;;5106721;27;20071;-86
2023/05/06 07:15:05;;;;;;;46.00;30.13;;;;;;;;;;5110768;27;20537;-85
2023/05/06 07:17:32;;;;;;;43.20;29.90;;;;;;;;;;5104481;27;20081;-86
2023/05/06 07:19:59;;;;;;;41.63;28.88;;;;;;;;;;5110841;27;20039;-86
2023/05/06 07:22:27;;;;;;;46.08;31.10;;;;;;;;;;5112676;27;20999;-86
2023/05/06 07:24:54;;;;;;;45.05;30.02;;;;;;;;;;5117445;27;20050;-86
2023/05/06 07:27:20;;;;;;;38.88;28.83;;;;;;;;;;5123138;27;20129;-86
2023/05/06 07:29:46;;;;;;;47.60;30.52;;;;;;;;;;5125515;27;20042;-86
2023/05/06 07:32:12;;;;;;;42.55;29.92;;;;;;;;;;5121756;27;20185;-86
2023/05/06 07:34:38;;;;;;;37.55;28.13;;;;;;;;;;5095674;28;20205;-86
2023/05/06 07:37:06;;;;;;;39.08;28.85;;;;;;;;;;5109141;27;20430;-85
2023/05/06 07:39:32;;;;;;;40.28;28.73;;;;;;;;;;5113224;27;20039;-85
2023/05/06 07:41:58;;;;;;;40.22;30.10;;;;;;;;;;5106438;27;20040;-85
2023/05/06 07:44:25;;;;;;;39.42;27.95;;;;;;;;;;5108438;27;20182;-85
2023/05/06 07:46:51;;;;;;;40.15;26.52;;;;;;;;;;5110935;27;20107;-85
2023/05/06 07:49:17;;;;;;;33.78;25.65;;;;;;;;;;5113034;27;20039;-86
2023/05/06 07:51:44;;;;;;;33.83;25.90;;;;;;;;;;5090451;27;20121;-86
2023/05/06 07:54:10;;;;;;;30.05;24.70;;;;;;;;;;5115639;27;20050;-87
2023/05/06 07:56:36;;;;;;;32.85;24.45;;;;;;;;;;5106280;27;20059;-87
2023/05/06 07:59:04;;;;;;;32.40;25.70;;;;;;;;;;5092811;28;20039;-88
2023/05/06 08:01:31;;;;;;;33.33;24.48;;;;;;;;;;5083490;28;20483;-87
2023/05/06 08:03:59;;;;;;;30.23;25.17;;;;;;;;;;5098316;27;20099;-84
2023/05/06 08:06:25;;;;;;;30.70;25.15;;;;;;;;;;5101807;27;20558;-86
2023/05/06 08:08:51;;;;;;;33.92;26.35;;;;;;;;;;5106315;27;20134;-87
2023/05/06 08:11:17;;;;;;;37.08;27.35;;;;;;;;;;5087997;28;20054;-88
2023/05/06 08:13:43;;;;;;;33.05;25.55;;;;;;;;;;5090140;27;20036;-89
2023/05/06 08:16:09;;;;;;;32.25;26.58;;;;;;;;;;5107307;27;20156;-87
2023/05/06 08:18:35;;;;;;;31.48;26.02;;;;;;;;;;5087925;27;20118;-86
2023/05/06 08:21:01;;;;;;;34.35;26.38;;;;;;;;;;5104002;27;20044;-87
2023/05/06 08:23:27;;;;;;;45.78;27.92;;;;;;;;;;5083280;27;20047;-92
2023/05/06 08:25:54;;;;;;;29.55;23.88;;;;;;;;;;5074903;27;20047;-89
2023/05/06 08:28:20;;;;;;;31.67;24.40;;;;;;;;;;5079392;27;20082;-88
2023/05/06 08:30:47;;;;;;;29.65;23.27;;;;;;;;;;5090534;27;21770;-88
2023/05/06 08:33:13;;;;;;;29.42;22.55;;;;;;;;;;5085192;27;20105;-89
2023/05/06 08:35:39;;;;;;;33.42;22.65;;;;;;;;;;5092465;27;20067;-88
2023/05/06 08:38:05;;;;;;;26.75;20.90;;;;;;;;;;5051476;27;20135;-87
2023/05/06 08:40:32;;;;;;;26.25;21.38;;;;;;;;;;5104489;27;20036;-89
2023/05/06 08:42:59;;;;;;;27.10;21.02;;;;;;;;;;5119536;27;20039;-88
2023/05/06 08:45:26;;;;;;;27.63;22.35;;;;;;;;;;5104750;27;20138;-89
2023/05/06 08:47:54;;;;;;;25.60;20.27;;;;;;;;;;5111064;27;20407;-89
2023/05/06 08:50:20;;;;;;;27.42;20.65;;;;;;;;;;5106632;27;20394;-87
2023/05/06 08:52:47;;;;;;;27.15;22.00;;;;;;;;;;5107639;27;20036;-87
2023/05/06 08:55:13;;;;;;;23.65;20.08;;;;;;;;;;5110119;27;20040;-87
2023/05/06 08:57:40;;;;;;;24.83;19.30;;;;;;;;;;5111490;27;20046;-87
2023/05/06 09:00:09;;;;;;;22.48;18.80;;;;;;;;;;5110620;27;20523;-86
2023/05/06 09:02:37;;;;;;;24.73;18.50;;;;;;;;;;5110522;27;23324;-86
2023/05/06 09:05:03;;;;;;;20.75;16.52;;;;;;;;;;5073506;27;20046;-86
2023/05/06 09:07:29;;;;;;;21.38;17.85;;;;;;;;;;5106135;27;20050;-86
2023/05/06 09:09:55;;;;;;;23.50;19.55;;;;;;;;;;5070382;27;20105;-75
2023/05/06 09:12:23;;;;;;;24.63;19.63;;;;;;;;;;5086555;27;20047;-74
2023/05/06 09:14:50;;;;;;;26.33;20.38;;;;;;;;;;5086610;27;20074;-74
2023/05/06 09:17:22;;;;;;;23.83;19.70;;;;;;;;;;5079500;27;20039;-74
2023/05/06 09:19:49;;;;;;;23.55;19.65;;;;;;;;;;5082689;27;20764;-74
2023/05/06 09:22:15;;;;;;;23.40;20.10;;;;;;;;;;5085131;27;20081;-74
2023/05/06 09:24:41;;;;;;;23.67;19.88;;;;;;;;;;5079338;27;20062;-74
2023/05/06 09:27:08;;;;;;;23.10;19.70;;;;;;;;;;5081937;27;20134;-86
2023/05/06 09:29:34;;;;;;;20.55;18.35;;;;;;;;;;5090014;27;20151;-85
2023/05/06 09:32:05;;;;;;;21.05;18.10;;;;;;;;;;5082337;27;20048;-85
2023/05/06 09:34:31;;;;;;;23.17;18.02;;;;;;;;;;5089180;27;20061;-87
2023/05/06 09:36:57;;;;;;;23.88;16.92;;;;;;;;;;5097893;27;20123;-86
2023/05/06 09:39:27;;;;;;;22.75;17.25;;;;;;;;;;5077179;27;20422;-81
2023/05/06 09:41:56;;;;;;;21.83;16.40;;;;;;;;;;5084285;27;20043;-86
2023/05/06 09:44:24;;;;;;;19.85;17.02;;;;;;;;;;5089433;27;20046;-86
2023/05/06 09:46:51;;;;;;;28.63;17.45;;;;;;;;;;5083410;27;20508;-86
2023/05/06 09:49:17;;;;;;;20.98;16.02;;;;;;;;;;5086039;27;20703;-85
2023/05/06 09:52:02;;;;;;;24.98;16.60;;;;;;;;;;5089049;27;20051;-87
2023/05/06 09:54:29;;;;;;;22.77;16.95;;;;;;;;;;5088010;27;20057;-86
2023/05/06 09:56:55;;;;;;;22.05;15.82;;;;;;;;;;5088446;27;20045;-87
2023/05/06 09:59:22;;;;;;;23.05;16.30;;;;;;;;;;5086144;27;20039;-85
2023/05/06 10:01:50;;;;;;;22.15;16.33;;;;;;;;;;5094975;27;20099;-86
2023/05/06 10:04:16;;;;;;;20.35;15.93;;;;;;;;;;5096265;27;20053;-88
2023/05/06 10:06:43;;;;;;;18.15;14.13;;;;;;;;;;5104353;27;20050;-89
2023/05/06 10:09:13;;;;;;;18.08;13.93;;;;;;;;;;5109706;27;20054;-87
2023/05/06 10:11:44;;;;;;;18.08;14.40;;;;;;;;;;5062689;27;20085;-86
2023/05/06 10:14:10;;;;;;;17.83;14.32;;;;;;;;;;5095731;27;20048;-85
2023/05/06 10:16:38;;;;;;;17.42;13.65;;;;;;;;;;5078878;27;20058;-86
2023/05/06 10:19:06;;;;;;;17.95;14.82;;;;;;;;;;5090851;27;20051;-85
2023/05/06 10:21:33;;;;;;;16.42;13.95;;;;;;;;;;5085573;27;20038;-87
2023/05/06 10:24:16;;;;;;;16.45;14.65;;;;;;;;;;5102229;27;20103;-88
2023/05/06 10:26:42;;;;;;;16.85;13.23;;;;;;;;;;5087954;27;20066;-87
2023/05/06 10:29:09;;;;;;;15.98;13.55;;;;;;;;;;5091410;28;20047;-88
2023/05/06 10:31:38;;;;;;;15.65;13.18;;;;;;;;;;5084626;27;20043;-88
2023/05/06 10:34:06;;;;;;;15.75;13.07;;;;;;;;;;5107296;27;20074;-86
2023/05/06 10:36:35;;;;;;;12.68;11.38;;;;;;;;;;5097608;27;20054;-87
2023/05/06 10:39:03;;;;;;;13.77;12.27;;;;;;;;;;5077127;27;20047;-83
2023/05/06 10:41:30;;;;;;;14.48;12.77;;;;;;;;;;5095708;27;20035;-91
2023/05/06 10:44:00;;;;;;;13.43;11.73;;;;;;;;;;5112219;27;20031;-84
2023/05/06 10:46:30;;;;;;;13.52;10.85;;;;;;;;;;5093901;27;20043;-83
2023/05/06 10:49:18;;;;;;;12.35;10.38;;;;;;;;;;5092476;27;20096;-85
2023/05/06 10:52:03;;;;;;;13.02;9.30;;;;;;;;;;5103810;27;20398;-83
2023/05/06 10:54:30;;;;;;;10.75;8.38;;;;;;;;;;5086456;27;20046;-81
2023/05/06 10:56:57;;;;;;;8.18;7.38;;;;;;;;;;5098334;27;20155;-85
2023/05/06 10:59:24;;;;;;;9.57;7.50;;;;;;;;;;5104953;27;20039;-83
2023/05/06 11:01:54;;;;;;;12.20;8.70;;;;;;;;;;5093179;28;20044;-86
2023/05/06 11:04:20;;;;;;;10.60;8.70;;;;;;;;;;5114388;27;20032;-85
2023/05/06 11:06:51;;;;;;;10.73;7.18;;;;;;;;;;5087362;27;20078;-85
2023/05/06 11:09:26;;;;;;;8.82;7.72;;;;;;;;;;5087059;27;20161;-87
2023/05/06 11:12:03;;;;;;;13.88;8.50;;;;;;;;;;5100354;27;20123;-85
2023/05/06 11:14:36;;;;;;;10.07;8.65;;;;;;;;;;5098359;27;20039;-86
2023/05/06 11:17:03;;;;;;;11.52;7.63;;;;;;;;;;5084909;27;21136;-85
2023/05/06 11:19:34;;;;;;;8.20;6.88;;;;;;;;;;5105671;27;20825;-86
2023/05/06 11:22:01;;;;;;;9.30;7.32;;;;;;;;;;5101501;27;20031;-86
2023/05/06 11:24:31;;;;;;;9.25;5.70;;;;;;;;;;5091587;27;20181;-86
2023/05/06 11:26:59;;;;;;;7.10;5.47;;;;;;;;;;5104527;27;20058;-86
2023/05/06 11:29:42;;;;;;;7.30;5.88;;;;;;;;;;5079241;27;20035;-88
2023/05/06 11:33:02;;;;;;;;;;;;;;;;;;;;;
2023/05/06 11:35:53;;;;;;;8.48;6.32;;;;;;;;;;5051215;28;20146;-87
2023/05/06 11:42:10;;;;;;;7.00;6.30;;;;;;;;;;5063464;28;20495;-88
2023/05/06 11:45:03;;;;;;;7.30;6.47;;;;;;;;;;5102009;27;20134;-88
2023/05/06 11:47:50;;;;;;;7.65;6.82;;;;;;;;;;5079473;27;20059;-86
2023/05/06 11:50:21;;;;;;;8.75;7.25;;;;;;;;;;5095531;27;20052;-85
2023/05/06 11:52:51;;;;;;;9.43;7.32;;;;;;;;;;5106664;27;20039;-86
2023/05/06 11:55:42;;;;;;;8.75;6.85;;;;;;;;;;5088153;28;20598;-87
2023/05/06 11:58:31;;;;;;;9.02;6.97;;;;;;;;;;5086149;28;20052;-87
2023/05/06 12:01:05;;;;;;;8.65;7.35;;;;;;;;;;5054187;28;20558;-85
2023/05/06 12:03:51;;;;;;;7.78;6.93;;;;;;;;;;5027848;28;20044;-87
2023/05/06 12:06:47;;;;;;;7.22;6.63;;;;;;;;;;5043654;28;20517;-88
2023/05/06 12:09:21;;;;;;;9.85;7.55;;;;;;;;;;5023004;28;20047;-87
2023/05/06 12:11:50;;;;;;;10.32;9.27;;;;;;;;;;5045950;28;20108;-87
2023/05/06 12:14:17;;;;;;;11.13;7.85;;;;;;;;;;5060400;28;20182;-85
2023/05/06 12:19:41;;;;;;;9.20;7.70;;;;;;;;;;5030215;28;20473;-86
2023/05/06 12:22:23;;;;;;;10.80;7.70;;;;;;;;;;5008861;28;20129;-86
2023/05/06 12:24:53;;;;;;;9.40;8.00;;;;;;;;;;5039977;28;20083;-85
2023/05/06 12:37:26;;;;;;;9.90;8.90;;;;;;;;;;5020358;28;20041;-88
2023/05/06 12:39:52;;;;;;;9.48;8.52;;;;;;;;;;5019515;28;20469;-86
2023/05/06 12:42:34;;;;;;;10.60;9.25;;;;;;;;;;5071699;28;20075;-87
2023/05/06 12:48:15;;;;;;;11.43;10.30;;;;;;;;;;5097820;27;20039;-86
2023/05/06 12:50:47;;;;;;;11.00;9.90;;;;;;;;;;5081757;28;20048;-87
2023/05/06 12:53:29;;;;;;;10.80;9.50;;;;;;;;;;5105165;28;20035;-87
2023/05/06 12:56:15;;;;;;;11.27;10.07;;;;;;;;;;5080982;28;20144;-87
2023/05/06 12:58:41;;;;;;;10.90;9.60;;;;;;;;;;5078081;27;20548;-86
2023/05/06 13:01:20;;;;;;;11.35;10.10;;;;;;;;;;5089884;27;22059;-86
2023/05/06 13:04:08;;;;;;;11.82;10.15;;;;;;;;;;5069847;27;20050;-86
2023/05/06 13:09:58;;;;;;;12.02;10.55;;;;;;;;;;5075812;28;20044;-88
2023/05/06 13:12:51;;;;;;;12.00;9.43;;;;;;;;;;5059918;28;20924;-89
2023/05/06 13:15:18;;;;;;;12.45;10.65;;;;;;;;;;5039292;28;20045;-87
2023/05/06 13:17:46;;;;;;;12.00;10.05;;;;;;;;;;5001935;28;20048;-86
2023/05/06 13:20:21;;;;;;;12.18;10.88;;;;;;;;;;5020271;28;20077;-87
2023/05/06 13:22:48;;;;;;;14.82;11.25;;;;;;;;;;4990440;28;21020;-85
2023/05/06 13:25:15;;;;;;;14.88;11.75;;;;;;;;;;5003304;28;20536;-84
2023/05/06 13:27:41;;;;;;;13.02;11.70;;;;;;;;;;4998681;28;20059;-85
2023/05/06 13:30:19;;;;;;;11.68;10.57;;;;;;;;;;5000468;28;20052;-87
2023/05/06 13:32:46;;;;;;;15.85;11.70;;;;;;;;;;5006733;28;20056;-86
2023/05/06 13:36:01;;;;;;;14.02;11.55;;;;;;;;;;5001445;28;20098;-86
2023/05/06 13:38:45;;;;;;;12.73;11.48;;;;;;;;;;5057585;28;20040;-87
2023/05/06 13:41:15;;;;;;;14.93;11.52;;;;;;;;;;5066299;28;20632;-85
2023/05/06 13:43:43;;;;;;;12.20;10.90;;;;;;;;;;5064339;28;20060;-85
2023/05/06 13:46:17;;;;;;;13.60;10.95;;;;;;;;;;5051675;27;21104;-86
2023/05/06 13:48:54;;;;;;;16.45;11.18;;;;;;;;;;5091471;27;20094;-86
2023/05/06 13:51:29;;;;;;;16.23;12.20;;;;;;;;;;5093007;27;20031;-86
2023/05/06 13:54:18;;;;;;;;;;;;;;;;;;;;;
2023/05/06 13:57:00;;;;;;;14.38;12.40;;;;;;;;;;5109420;27;20084;-86
2023/05/06 13:59:26;;;;;;;15.05;12.32;;;;;;;;;;5087085;27;20032;-85
2023/05/06 14:01:54;;;;;;;17.48;13.13;;;;;;;;;;5091912;27;20103;-86
2023/05/06 14:04:20;;;;;;;14.95;12.88;;;;;;;;;;5104649;27;20050;-85
2023/05/06 14:06:47;;;;;;;16.25;13.38;;;;;;;;;;5101642;27;20043;-84
2023/05/06 14:09:22;;;;;;;19.30;14.00;;;;;;;;;;5103379;27;20036;-84
2023/05/06 14:11:48;;;;;;;18.92;13.95;;;;;;;;;;5106285;27;20136;-85
2023/05/06 14:14:15;;;;;;;16.10;12.70;;;;;;;;;;5095484;28;20114;-86
2023/05/06 14:17:00;;;;;;;18.73;14.52;;;;;;;;;;5091301;28;20040;-84
2023/05/06 14:19:28;;;;;;;16.20;13.85;;;;;;;;;;5094348;27;20039;-87
2023/05/06 14:25:35;;;;;;;16.52;13.52;;;;;;;;;;5113304;27;20043;-86
2023/05/06 14:28:30;;;;;;;16.88;15.10;;;;;;;;;;5090682;27;20040;-85
2023/05/06 14:31:25;;;;;;;17.02;14.85;;;;;;;;;;5015755;28;20049;-86
2023/05/06 14:33:54;;;;;;;19.08;13.85;;;;;;;;;;5088674;27;20042;-86
2023/05/06 14:43:43;;;;;;;17.88;14.32;;;;;;;;;;5116937;27;20035;-86
2023/05/06 14:46:13;;;;;;;19.48;13.65;;;;;;;;;;5127344;27;20182;-84
2023/05/06 15:02:39;;;;;;;18.98;14.05;;;;;;;;;;5005501;28;20098;-85
2023/05/06 15:05:13;;;;;;;17.73;14.32;;;;;;;;;;5014998;28;20067;-87
2023/05/06 15:08:12;;;;;;;18.13;13.95;;;;;;;;;;5081688;27;20066;-85
2023/05/06 15:10:56;;;;;;;19.85;13.98;;;;;;;;;;4989246;28;20049;-83
2023/05/06 15:13:23;;;;;;;17.00;12.30;;;;;;;;;;5004621;28;20069;-84
2023/05/06 15:15:59;;;;;;;18.77;11.93;;;;;;;;;;5088606;27;20503;-84
2023/05/06 15:18:25;;;;;;;20.15;13.32;;;;;;;;;;5070160;27;20859;-84